sensor_id;sensor_type;location;lat;lon;timestamp;P1;durP1;ratioP1;P2;durP2;ratioP2
52354;SDS011;38286;51.156;17.038;2023-10-09T00:00:26;2.58;;;1.23;;
52354;SDS011;38286;51.156;17.038;2023-10-09T00:03:36;3.72;;;1.50;;
52354;SDS011;38286;51.156;17.038;2023-10-09T00:06:03;1.95;;;1.05;;
52354;SDS011;38286;51.156;17.038;2023-10-09T00:08:30;2.08;;;1.27;;
52354;SDS011;38286;51.156;17.038;2023-10-09T00:10:59;1.65;;;1.08;;
52354;SDS011;38286;51.156;17.038;2023-10-09T00:13:39;2.53;;;1.38;;
52354;SDS011;38286;51.156;17.038;2023-10-09T00:16:14;2.42;;;1.40;;
52354;SDS011;38286;51.156;17.038;2023-10-09T00:18:41;2.28;;;1.40;;
52354;SDS011;38286;51.156;17.038;2023-10-09T00:21:15;3.63;;;1.45;;
52354;SDS011;38286;51.156;17.038;2023-10-09T00:23:48;1.27;;;1.10;;
52354;SDS011;38286;51.156;17.038;2023-10-09T00:26:19;1.83;;;1.10;;
52354;SDS011;38286;51.156;17.038;2023-10-09T00:28:48;2.47;;;1.20;;
52354;SDS011;38286;51.156;17.038;2023-10-09T00:31:17;2.75;;;1.45;;
52354;SDS011;38286;51.156;17.038;2023-10-09T00:33:55;1.77;;;1.20;;
52354;SDS011;38286;51.156;17.038;2023-10-09T00:36:21;1.38;;;1.10;;
52354;SDS011;38286;51.156;17.038;2023-10-09T00:38:54;1.83;;;1.40;;
52354;SDS011;38286;51.156;17.038;2023-10-09T00:41:20;2.05;;;1.50;;
52354;SDS011;38286;51.156;17.038;2023-10-09T00:43:50;1.80;;;1.20;;
52354;SDS011;38286;51.156;17.038;2023-10-09T00:46:18;1.23;;;1.05;;
52354;SDS011;38286;51.156;17.038;2023-10-09T00:48:50;2.08;;;1.30;;
52354;SDS011;38286;51.156;17.038;2023-10-09T00:51:21;1.83;;;1.17;;
52354;SDS011;38286;51.156;17.038;2023-10-09T00:53:52;1.63;;;1.23;;
52354;SDS011;38286;51.156;17.038;2023-10-09T00:56:23;2.13;;;1.30;;
52354;SDS011;38286;51.156;17.038;2023-10-09T00:58:58;2.03;;;1.13;;
52354;SDS011;38286;51.156;17.038;2023-10-09T01:01:29;2.22;;;1.25;;
52354;SDS011;38286;51.156;17.038;2023-10-09T01:04:02;2.13;;;1.15;;
52354;SDS011;38286;51.156;17.038;2023-10-09T01:06:43;1.90;;;1.20;;
52354;SDS011;38286;51.156;17.038;2023-10-09T01:09:11;1.60;;;1.00;;
52354;SDS011;38286;51.156;17.038;2023-10-09T01:11:39;2.03;;;1.35;;
52354;SDS011;38286;51.156;17.038;2023-10-09T01:14:29;1.52;;;1.30;;
52354;SDS011;38286;51.156;17.038;2023-10-09T01:16:56;2.45;;;1.40;;
52354;SDS011;38286;51.156;17.038;2023-10-09T01:19:23;2.13;;;1.10;;
52354;SDS011;38286;51.156;17.038;2023-10-09T01:21:52;1.92;;;1.20;;
52354;SDS011;38286;51.156;17.038;2023-10-09T01:24:19;2.20;;;1.50;;
52354;SDS011;38286;51.156;17.038;2023-10-09T01:26:45;2.75;;;1.55;;
52354;SDS011;38286;51.156;17.038;2023-10-09T01:29:13;2.05;;;1.35;;
52354;SDS011;38286;51.156;17.038;2023-10-09T01:31:43;1.50;;;1.20;;
52354;SDS011;38286;51.156;17.038;2023-10-09T01:34:32;1.75;;;1.20;;
52354;SDS011;38286;51.156;17.038;2023-10-09T01:37:02;4.00;;;1.40;;
52354;SDS011;38286;51.156;17.038;2023-10-09T01:39:30;2.53;;;1.33;;
52354;SDS011;38286;51.156;17.038;2023-10-09T01:41:56;2.03;;;1.30;;
52354;SDS011;38286;51.156;17.038;2023-10-09T01:44:27;4.40;;;1.30;;
52354;SDS011;38286;51.156;17.038;2023-10-09T01:46:56;3.80;;;1.30;;
52354;SDS011;38286;51.156;17.038;2023-10-09T01:49:24;2.03;;;1.30;;
52354;SDS011;38286;51.156;17.038;2023-10-09T01:51:57;2.80;;;1.30;;
52354;SDS011;38286;51.156;17.038;2023-10-09T01:54:34;1.77;;;1.40;;
52354;SDS011;38286;51.156;17.038;2023-10-09T01:57:03;1.92;;;1.15;;
52354;SDS011;38286;51.156;17.038;2023-10-09T01:59:41;10.13;;;2.20;;
52354;SDS011;38286;51.156;17.038;2023-10-09T02:02:14;7.63;;;2.05;;
52354;SDS011;38286;51.156;17.038;2023-10-09T02:04:53;6.85;;;2.05;;
52354;SDS011;38286;51.156;17.038;2023-10-09T02:07:20;5.43;;;2.00;;
52354;SDS011;38286;51.156;17.038;2023-10-09T02:09:56;3.47;;;1.60;;
52354;SDS011;38286;51.156;17.038;2023-10-09T02:12:22;5.05;;;1.70;;
52354;SDS011;38286;51.156;17.038;2023-10-09T02:14:50;4.47;;;1.55;;
52354;SDS011;38286;51.156;17.038;2023-10-09T02:17:19;3.90;;;1.50;;
52354;SDS011;38286;51.156;17.038;2023-10-09T02:19:54;3.95;;;1.75;;
52354;SDS011;38286;51.156;17.038;2023-10-09T02:22:20;2.45;;;1.40;;
52354;SDS011;38286;51.156;17.038;2023-10-09T02:24:51;4.03;;;1.70;;
52354;SDS011;38286;51.156;17.038;2023-10-09T02:27:23;3.67;;;1.42;;
52354;SDS011;38286;51.156;17.038;2023-10-09T02:30:09;3.30;;;1.73;;
52354;SDS011;38286;51.156;17.038;2023-10-09T02:32:44;2.90;;;1.27;;
52354;SDS011;38286;51.156;17.038;2023-10-09T02:35:15;2.03;;;1.27;;
52354;SDS011;38286;51.156;17.038;2023-10-09T02:37:54;2.33;;;1.45;;
52354;SDS011;38286;51.156;17.038;2023-10-09T02:40:20;2.70;;;1.42;;
52354;SDS011;38286;51.156;17.038;2023-10-09T02:42:51;3.30;;;1.52;;
52354;SDS011;38286;51.156;17.038;2023-10-09T02:45:17;2.92;;;1.30;;
52354;SDS011;38286;51.156;17.038;2023-10-09T02:47:44;1.90;;;1.33;;
52354;SDS011;38286;51.156;17.038;2023-10-09T02:50:14;1.20;;;1.10;;
52354;SDS011;38286;51.156;17.038;2023-10-09T02:52:47;2.40;;;1.10;;
52354;SDS011;38286;51.156;17.038;2023-10-09T02:55:19;1.60;;;1.20;;
52354;SDS011;38286;51.156;17.038;2023-10-09T02:57:53;3.03;;;1.30;;
52354;SDS011;38286;51.156;17.038;2023-10-09T03:00:39;1.42;;;1.00;;
52354;SDS011;38286;51.156;17.038;2023-10-09T03:03:11;1.90;;;1.10;;
52354;SDS011;38286;51.156;17.038;2023-10-09T03:05:47;1.30;;;1.02;;
52354;SDS011;38286;51.156;17.038;2023-10-09T03:08:17;2.05;;;1.40;;
52354;SDS011;38286;51.156;17.038;2023-10-09T03:10:54;1.77;;;1.50;;
52354;SDS011;38286;51.156;17.038;2023-10-09T03:13:33;2.55;;;1.30;;
52354;SDS011;38286;51.156;17.038;2023-10-09T03:16:14;2.00;;;1.10;;
52354;SDS011;38286;51.156;17.038;2023-10-09T03:18:54;2.08;;;1.00;;
52354;SDS011;38286;51.156;17.038;2023-10-09T03:21:23;1.40;;;1.10;;
52354;SDS011;38286;51.156;17.038;2023-10-09T03:23:55;1.20;;;0.98;;
52354;SDS011;38286;51.156;17.038;2023-10-09T03:26:34;2.10;;;1.30;;
52354;SDS011;38286;51.156;17.038;2023-10-09T03:29:10;1.08;;;0.90;;
52354;SDS011;38286;51.156;17.038;2023-10-09T03:31:54;1.33;;;1.00;;
52354;SDS011;38286;51.156;17.038;2023-10-09T03:34:27;1.63;;;1.25;;
52354;SDS011;38286;51.156;17.038;2023-10-09T03:37:08;2.13;;;1.10;;
52354;SDS011;38286;51.156;17.038;2023-10-09T03:39:51;1.15;;;1.00;;
52354;SDS011;38286;51.156;17.038;2023-10-09T03:45:21;1.60;;;1.08;;
52354;SDS011;38286;51.156;17.038;2023-10-09T03:48:05;1.38;;;0.90;;
52354;SDS011;38286;51.156;17.038;2023-10-09T03:51:15;1.50;;;0.98;;
52354;SDS011;38286;51.156;17.038;2023-10-09T03:53:57;0.80;;;0.80;;
52354;SDS011;38286;51.156;17.038;2023-10-09T03:59:29;1.88;;;0.85;;
52354;SDS011;38286;51.156;17.038;2023-10-09T04:02:22;2.03;;;1.00;;
52354;SDS011;38286;51.156;17.038;2023-10-09T04:05:09;1.05;;;0.80;;
52354;SDS011;38286;51.156;17.038;2023-10-09T04:07:56;1.50;;;1.10;;
52354;SDS011;38286;51.156;17.038;2023-10-09T04:10:32;1.00;;;0.90;;
52354;SDS011;38286;51.156;17.038;2023-10-09T04:13:28;1.00;;;0.90;;
52354;SDS011;38286;51.156;17.038;2023-10-09T04:16:23;1.30;;;0.93;;
52354;SDS011;38286;51.156;17.038;2023-10-09T04:19:01;1.33;;;0.77;;
52354;SDS011;38286;51.156;17.038;2023-10-09T04:21:56;1.17;;;0.80;;
52354;SDS011;38286;51.156;17.038;2023-10-09T04:25:04;1.38;;;0.80;;
52354;SDS011;38286;51.156;17.038;2023-10-09T04:27:55;1.60;;;1.00;;
52354;SDS011;38286;51.156;17.038;2023-10-09T04:30:48;1.23;;;0.95;;
52354;SDS011;38286;51.156;17.038;2023-10-09T04:33:28;1.95;;;0.90;;
52354;SDS011;38286;51.156;17.038;2023-10-09T04:36:29;0.75;;;0.75;;
52354;SDS011;38286;51.156;17.038;2023-10-09T04:39:23;1.00;;;0.90;;
52354;SDS011;38286;51.156;17.038;2023-10-09T04:42:04;1.42;;;0.70;;
52354;SDS011;38286;51.156;17.038;2023-10-09T04:45:04;1.40;;;0.80;;
52354;SDS011;38286;51.156;17.038;2023-10-09T04:47:43;1.52;;;0.90;;
52354;SDS011;38286;51.156;17.038;2023-10-09T04:50:39;1.00;;;0.90;;
52354;SDS011;38286;51.156;17.038;2023-10-09T04:53:53;1.02;;;0.80;;
52354;SDS011;38286;51.156;17.038;2023-10-09T04:57:06;1.02;;;0.80;;
52354;SDS011;38286;51.156;17.038;2023-10-09T04:59:49;1.13;;;0.85;;
52354;SDS011;38286;51.156;17.038;2023-10-09T05:02:32;1.50;;;1.10;;
52354;SDS011;38286;51.156;17.038;2023-10-09T05:05:06;1.30;;;0.80;;
52354;SDS011;38286;51.156;17.038;2023-10-09T05:08:20;1.25;;;0.80;;
52354;SDS011;38286;51.156;17.038;2023-10-09T05:11:00;1.02;;;0.80;;
52354;SDS011;38286;51.156;17.038;2023-10-09T05:13:38;3.85;;;0.90;;
52354;SDS011;38286;51.156;17.038;2023-10-09T05:16:37;1.20;;;0.90;;
52354;SDS011;38286;51.156;17.038;2023-10-09T05:19:29;2.05;;;1.00;;
52354;SDS011;38286;51.156;17.038;2023-10-09T05:22:36;1.10;;;1.00;;
52354;SDS011;38286;51.156;17.038;2023-10-09T05:25:09;1.70;;;0.77;;
52354;SDS011;38286;51.156;17.038;2023-10-09T05:28:05;1.50;;;1.15;;
52354;SDS011;38286;51.156;17.038;2023-10-09T05:31:11;0.85;;;0.60;;
52354;SDS011;38286;51.156;17.038;2023-10-09T05:34:06;2.58;;;0.93;;
52354;SDS011;38286;51.156;17.038;2023-10-09T05:36:51;1.05;;;0.90;;
52354;SDS011;38286;51.156;17.038;2023-10-09T05:39:39;2.75;;;0.80;;
52354;SDS011;38286;51.156;17.038;2023-10-09T05:42:38;2.28;;;0.70;;
52354;SDS011;38286;51.156;17.038;2023-10-09T05:45:13;1.60;;;0.88;;
52354;SDS011;38286;51.156;17.038;2023-10-09T05:48:07;1.15;;;0.73;;
52354;SDS011;38286;51.156;17.038;2023-10-09T05:50:55;0.88;;;0.60;;
52354;SDS011;38286;51.156;17.038;2023-10-09T05:53:55;1.65;;;0.73;;
52354;SDS011;38286;51.156;17.038;2023-10-09T05:57:02;0.75;;;0.75;;
52354;SDS011;38286;51.156;17.038;2023-10-09T05:59:56;1.05;;;0.63;;
52354;SDS011;38286;51.156;17.038;2023-10-09T06:02:48;1.02;;;0.60;;
52354;SDS011;38286;51.156;17.038;2023-10-09T06:05:59;1.45;;;0.70;;
52354;SDS011;38286;51.156;17.038;2023-10-09T06:08:53;0.50;;;0.50;;
52354;SDS011;38286;51.156;17.038;2023-10-09T06:12:04;0.73;;;0.40;;
52354;SDS011;38286;51.156;17.038;2023-10-09T06:15:20;1.15;;;0.63;;
52354;SDS011;38286;51.156;17.038;2023-10-09T06:18:36;0.98;;;0.70;;
52354;SDS011;38286;51.156;17.038;2023-10-09T06:24:37;4.22;;;1.02;;
52354;SDS011;38286;51.156;17.038;2023-10-09T06:27:32;0.90;;;0.60;;
52354;SDS011;38286;51.156;17.038;2023-10-09T06:30:24;1.55;;;1.10;;
52354;SDS011;38286;51.156;17.038;2023-10-09T06:33:25;2.28;;;0.80;;
52354;SDS011;38286;51.156;17.038;2023-10-09T06:37:01;0.70;;;0.65;;
52354;SDS011;38286;51.156;17.038;2023-10-09T06:39:55;1.48;;;0.80;;
52354;SDS011;38286;51.156;17.038;2023-10-09T06:43:35;1.20;;;0.80;;
52354;SDS011;38286;51.156;17.038;2023-10-09T06:46:14;1.35;;;0.68;;
52354;SDS011;38286;51.156;17.038;2023-10-09T06:49:31;1.73;;;0.68;;
52354;SDS011;38286;51.156;17.038;2023-10-09T06:52:47;0.55;;;0.55;;
52354;SDS011;38286;51.156;17.038;2023-10-09T06:55:41;2.10;;;1.02;;
52354;SDS011;38286;51.156;17.038;2023-10-09T06:58:23;1.83;;;0.70;;
52354;SDS011;38286;51.156;17.038;2023-10-09T07:04:04;0.85;;;0.60;;
52354;SDS011;38286;51.156;17.038;2023-10-09T07:07:01;0.90;;;0.63;;
52354;SDS011;38286;51.156;17.038;2023-10-09T07:09:59;1.15;;;0.68;;
52354;SDS011;38286;51.156;17.038;2023-10-09T07:12:49;1.45;;;0.60;;
52354;SDS011;38286;51.156;17.038;2023-10-09T07:15:49;1.15;;;0.70;;
52354;SDS011;38286;51.156;17.038;2023-10-09T07:19:02;1.02;;;0.50;;
52354;SDS011;38286;51.156;17.038;2023-10-09T07:22:15;0.63;;;0.55;;
52354;SDS011;38286;51.156;17.038;2023-10-09T07:25:01;0.63;;;0.60;;
52354;SDS011;38286;51.156;17.038;2023-10-09T07:28:03;0.63;;;0.60;;
52354;SDS011;38286;51.156;17.038;2023-10-09T07:30:51;0.77;;;0.52;;
52354;SDS011;38286;51.156;17.038;2023-10-09T07:33:41;0.77;;;0.70;;
52354;SDS011;38286;51.156;17.038;2023-10-09T07:36:41;1.05;;;0.70;;
52354;SDS011;38286;51.156;17.038;2023-10-09T07:39:53;1.00;;;0.70;;
52354;SDS011;38286;51.156;17.038;2023-10-09T07:42:55;1.13;;;0.77;;
52354;SDS011;38286;51.156;17.038;2023-10-09T07:45:57;0.90;;;0.52;;
52354;SDS011;38286;51.156;17.038;2023-10-09T07:48:40;1.00;;;0.70;;
52354;SDS011;38286;51.156;17.038;2023-10-09T07:51:47;0.60;;;0.50;;
52354;SDS011;38286;51.156;17.038;2023-10-09T07:54:28;9.00;;;0.90;;
52354;SDS011;38286;51.156;17.038;2023-10-09T07:57:11;0.73;;;0.50;;
52354;SDS011;38286;51.156;17.038;2023-10-09T07:59:47;1.02;;;0.70;;
52354;SDS011;38286;51.156;17.038;2023-10-09T08:02:56;0.70;;;0.60;;
52354;SDS011;38286;51.156;17.038;2023-10-09T08:05:53;1.10;;;0.80;;
52354;SDS011;38286;51.156;17.038;2023-10-09T09:58:20;0.40;;;0.40;;
52354;SDS011;38286;51.156;17.038;2023-10-09T10:00:50;0.50;;;0.40;;
52354;SDS011;38286;51.156;17.038;2023-10-09T10:03:23;0.30;;;0.30;;
52354;SDS011;38286;51.156;17.038;2023-10-09T10:05:52;0.40;;;0.40;;
52354;SDS011;38286;51.156;17.038;2023-10-09T10:08:22;0.40;;;0.35;;
52354;SDS011;38286;51.156;17.038;2023-10-09T10:10:57;1.45;;;0.50;;
52354;SDS011;38286;51.156;17.038;2023-10-09T10:16:08;1.40;;;0.45;;
52354;SDS011;38286;51.156;17.038;2023-10-09T10:21:26;1.42;;;0.35;;
52354;SDS011;38286;51.156;17.038;2023-10-09T10:24:40;1.23;;;0.50;;
52354;SDS011;38286;51.156;17.038;2023-10-09T10:32:53;3.03;;;0.68;;
52354;SDS011;38286;51.156;17.038;2023-10-09T10:35:41;2.80;;;0.95;;
52354;SDS011;38286;51.156;17.038;2023-10-09T10:38:23;7.45;;;0.60;;
52354;SDS011;38286;51.156;17.038;2023-10-09T10:40:48;3.00;;;0.52;;
52354;SDS011;38286;51.156;17.038;2023-10-09T10:43:23;4.38;;;0.60;;
52354;SDS011;38286;51.156;17.038;2023-10-09T10:46:08;1.48;;;0.50;;
52354;SDS011;38286;51.156;17.038;2023-10-09T10:48:50;0.63;;;0.50;;
52354;SDS011;38286;51.156;17.038;2023-10-09T10:51:27;0.90;;;0.50;;
52354;SDS011;38286;51.156;17.038;2023-10-09T10:54:03;0.50;;;0.43;;
52354;SDS011;38286;51.156;17.038;2023-10-09T10:56:48;1.45;;;0.38;;
52354;SDS011;38286;51.156;17.038;2023-10-09T10:59:15;0.90;;;0.65;;
52354;SDS011;38286;51.156;17.038;2023-10-09T11:01:48;0.40;;;0.40;;
52354;SDS011;38286;51.156;17.038;2023-10-09T11:04:27;0.80;;;0.45;;
52354;SDS011;38286;51.156;17.038;2023-10-09T11:07:00;0.93;;;0.50;;
52354;SDS011;38286;51.156;17.038;2023-10-09T11:09:44;1.50;;;0.40;;
52354;SDS011;38286;51.156;17.038;2023-10-09T11:12:44;0.73;;;0.43;;
52354;SDS011;38286;51.156;17.038;2023-10-09T11:15:34;0.60;;;0.40;;
52354;SDS011;38286;51.156;17.038;2023-10-09T11:18:10;1.60;;;0.60;;
52354;SDS011;38286;51.156;17.038;2023-10-09T11:20:53;1.35;;;0.50;;
52354;SDS011;38286;51.156;17.038;2023-10-09T11:23:29;0.85;;;0.40;;
52354;SDS011;38286;51.156;17.038;2023-10-09T11:26:05;1.15;;;0.30;;
52354;SDS011;38286;51.156;17.038;2023-10-09T11:29:10;0.47;;;0.40;;
52354;SDS011;38286;51.156;17.038;2023-10-09T11:32:19;1.67;;;0.35;;
52354;SDS011;38286;51.156;17.038;2023-10-09T11:34:50;0.60;;;0.40;;
52354;SDS011;38286;51.156;17.038;2023-10-09T11:37:34;0.45;;;0.45;;
52354;SDS011;38286;51.156;17.038;2023-10-09T11:43:15;1.10;;;0.60;;
52354;SDS011;38286;51.156;17.038;2023-10-09T11:45:41;0.90;;;0.50;;
52354;SDS011;38286;51.156;17.038;2023-10-09T11:48:20;2.35;;;0.30;;
52354;SDS011;38286;51.156;17.038;2023-10-09T11:50:59;0.38;;;0.30;;
52354;SDS011;38286;51.156;17.038;2023-10-09T11:53:28;1.20;;;0.38;;
52354;SDS011;38286;51.156;17.038;2023-10-09T11:55:54;0.70;;;0.50;;
52354;SDS011;38286;51.156;17.038;2023-10-09T11:58:21;0.60;;;0.40;;
52354;SDS011;38286;51.156;17.038;2023-10-09T12:00:53;2.25;;;0.30;;
52354;SDS011;38286;51.156;17.038;2023-10-09T12:03:25;1.65;;;0.55;;
52354;SDS011;38286;51.156;17.038;2023-10-09T12:06:03;1.30;;;0.60;;
52354;SDS011;38286;51.156;17.038;2023-10-09T12:08:31;2.15;;;0.60;;
52354;SDS011;38286;51.156;17.038;2023-10-09T12:10:57;0.73;;;0.40;;
52354;SDS011;38286;51.156;17.038;2023-10-09T12:13:24;5.25;;;1.00;;
52354;SDS011;38286;51.156;17.038;2023-10-09T12:15:51;1.17;;;0.70;;
52354;SDS011;38286;51.156;17.038;2023-10-09T12:18:20;1.02;;;0.60;;
52354;SDS011;38286;51.156;17.038;2023-10-09T12:20:47;1.13;;;0.40;;
52354;SDS011;38286;51.156;17.038;2023-10-09T12:23:17;1.70;;;0.60;;
52354;SDS011;38286;51.156;17.038;2023-10-09T12:25:43;3.28;;;0.77;;
52354;SDS011;38286;51.156;17.038;2023-10-09T12:28:13;1.13;;;0.50;;
52354;SDS011;38286;51.156;17.038;2023-10-09T12:30:39;1.83;;;0.68;;
52354;SDS011;38286;51.156;17.038;2023-10-09T12:33:07;2.08;;;0.68;;
52354;SDS011;38286;51.156;17.038;2023-10-09T12:35:37;1.63;;;0.70;;
52354;SDS011;38286;51.156;17.038;2023-10-09T12:38:04;1.42;;;0.70;;
52354;SDS011;38286;51.156;17.038;2023-10-09T12:40:38;4.78;;;0.70;;
52354;SDS011;38286;51.156;17.038;2023-10-09T12:43:17;2.22;;;0.60;;
52354;SDS011;38286;51.156;17.038;2023-10-09T12:45:45;2.03;;;0.90;;
52354;SDS011;38286;51.156;17.038;2023-10-09T12:48:11;2.50;;;0.70;;
52354;SDS011;38286;51.156;17.038;2023-10-09T12:50:40;1.73;;;0.60;;
52354;SDS011;38286;51.156;17.038;2023-10-09T12:53:10;4.05;;;0.60;;
52354;SDS011;38286;51.156;17.038;2023-10-09T12:55:37;1.45;;;0.73;;
52354;SDS011;38286;51.156;17.038;2023-10-09T12:58:07;2.08;;;0.70;;
52354;SDS011;38286;51.156;17.038;2023-10-09T13:00:37;2.55;;;0.70;;
52354;SDS011;38286;51.156;17.038;2023-10-09T13:03:09;3.08;;;0.80;;
52354;SDS011;38286;51.156;17.038;2023-10-09T13:05:43;1.58;;;0.77;;
52354;SDS011;38286;51.156;17.038;2023-10-09T13:08:21;3.88;;;0.93;;
52354;SDS011;38286;51.156;17.038;2023-10-09T13:11:05;1.05;;;0.70;;
52354;SDS011;38286;51.156;17.038;2023-10-09T13:13:46;0.95;;;0.60;;
52354;SDS011;38286;51.156;17.038;2023-10-09T13:16:21;1.17;;;0.57;;
52354;SDS011;38286;51.156;17.038;2023-10-09T13:18:57;4.07;;;1.05;;
52354;SDS011;38286;51.156;17.038;2023-10-09T13:21:31;0.68;;;0.55;;
52354;SDS011;38286;51.156;17.038;2023-10-09T13:24:03;1.25;;;0.90;;
52354;SDS011;38286;51.156;17.038;2023-10-09T13:26:29;0.77;;;0.70;;
52354;SDS011;38286;51.156;17.038;2023-10-09T13:29:02;1.10;;;0.73;;
52354;SDS011;38286;51.156;17.038;2023-10-09T13:31:28;0.82;;;0.60;;
52354;SDS011;38286;51.156;17.038;2023-10-09T13:33:57;0.70;;;0.70;;
52354;SDS011;38286;51.156;17.038;2023-10-09T13:36:27;0.68;;;0.60;;
52354;SDS011;38286;51.156;17.038;2023-10-09T13:39:02;1.20;;;0.52;;
52354;SDS011;38286;51.156;17.038;2023-10-09T13:41:48;1.77;;;0.65;;
52354;SDS011;38286;51.156;17.038;2023-10-09T13:44:30;1.80;;;0.70;;
52354;SDS011;38286;51.156;17.038;2023-10-09T13:46:58;1.10;;;0.75;;
52354;SDS011;38286;51.156;17.038;2023-10-09T13:49:25;0.68;;;0.68;;
52354;SDS011;38286;51.156;17.038;2023-10-09T13:51:57;1.35;;;0.80;;
52354;SDS011;38286;51.156;17.038;2023-10-09T13:54:23;1.38;;;0.63;;
52354;SDS011;38286;51.156;17.038;2023-10-09T13:56:58;0.47;;;0.47;;
52354;SDS011;38286;51.156;17.038;2023-10-09T13:59:34;1.42;;;0.60;;
52354;SDS011;38286;51.156;17.038;2023-10-09T14:02:00;0.68;;;0.60;;
52354;SDS011;38286;51.156;17.038;2023-10-09T14:04:28;0.70;;;0.60;;
52354;SDS011;38286;51.156;17.038;2023-10-09T14:06:54;0.60;;;0.60;;
52354;SDS011;38286;51.156;17.038;2023-10-09T14:09:24;2.33;;;0.50;;
52354;SDS011;38286;51.156;17.038;2023-10-09T14:12:00;1.25;;;0.68;;
52354;SDS011;38286;51.156;17.038;2023-10-09T14:14:33;1.70;;;0.70;;
52354;SDS011;38286;51.156;17.038;2023-10-09T14:17:06;0.63;;;0.63;;
52354;SDS011;38286;51.156;17.038;2023-10-09T14:19:38;0.50;;;0.50;;
52354;SDS011;38286;51.156;17.038;2023-10-09T14:22:19;1.00;;;0.45;;
52354;SDS011;38286;51.156;17.038;2023-10-09T14:24:47;0.60;;;0.60;;
52354;SDS011;38286;51.156;17.038;2023-10-09T14:27:16;0.73;;;0.73;;
52354;SDS011;38286;51.156;17.038;2023-10-09T14:29:45;1.38;;;0.70;;
52354;SDS011;38286;51.156;17.038;2023-10-09T14:32:15;2.05;;;0.50;;
52354;SDS011;38286;51.156;17.038;2023-10-09T14:34:43;1.08;;;0.60;;
52354;SDS011;38286;51.156;17.038;2023-10-09T14:37:15;0.90;;;0.55;;
52354;SDS011;38286;51.156;17.038;2023-10-09T14:39:42;0.60;;;0.60;;
52354;SDS011;38286;51.156;17.038;2023-10-09T14:42:08;1.27;;;0.57;;
52354;SDS011;38286;51.156;17.038;2023-10-09T14:44:36;1.77;;;0.98;;
52354;SDS011;38286;51.156;17.038;2023-10-09T14:47:04;4.57;;;0.88;;
52354;SDS011;38286;51.156;17.038;2023-10-09T14:49:31;1.73;;;0.60;;
52354;SDS011;38286;51.156;17.038;2023-10-09T14:52:12;2.67;;;0.70;;
52354;SDS011;38286;51.156;17.038;2023-10-09T14:54:42;0.80;;;0.50;;
52354;SDS011;38286;51.156;17.038;2023-10-09T14:57:10;1.15;;;0.50;;
52354;SDS011;38286;51.156;17.038;2023-10-09T14:59:37;0.55;;;0.50;;
52354;SDS011;38286;51.156;17.038;2023-10-09T15:02:03;0.98;;;0.50;;
52354;SDS011;38286;51.156;17.038;2023-10-09T15:04:34;1.95;;;0.68;;
52354;SDS011;38286;51.156;17.038;2023-10-09T15:07:03;1.83;;;0.60;;
52354;SDS011;38286;51.156;17.038;2023-10-09T15:09:35;1.02;;;0.52;;
52354;SDS011;38286;51.156;17.038;2023-10-09T15:12:02;0.70;;;0.60;;
52354;SDS011;38286;51.156;17.038;2023-10-09T15:14:28;0.80;;;0.63;;
52354;SDS011;38286;51.156;17.038;2023-10-09T15:16:54;1.55;;;0.60;;
52354;SDS011;38286;51.156;17.038;2023-10-09T15:19:20;1.95;;;0.60;;
52354;SDS011;38286;51.156;17.038;2023-10-09T15:24:21;0.75;;;0.50;;
52354;SDS011;38286;51.156;17.038;2023-10-09T15:26:48;0.60;;;0.60;;
52354;SDS011;38286;51.156;17.038;2023-10-09T15:29:24;0.95;;;0.70;;
52354;SDS011;38286;51.156;17.038;2023-10-09T15:32:00;0.60;;;0.60;;
52354;SDS011;38286;51.156;17.038;2023-10-09T15:34:30;1.02;;;0.75;;
52354;SDS011;38286;51.156;17.038;2023-10-09T15:36:57;1.13;;;0.60;;
52354;SDS011;38286;51.156;17.038;2023-10-09T15:39:23;0.88;;;0.60;;
52354;SDS011;38286;51.156;17.038;2023-10-09T15:41:49;3.00;;;0.75;;
52354;SDS011;38286;51.156;17.038;2023-10-09T15:44:16;1.17;;;0.80;;
52354;SDS011;38286;51.156;17.038;2023-10-09T15:46:42;1.95;;;0.93;;
52354;SDS011;38286;51.156;17.038;2023-10-09T15:49:11;1.75;;;1.00;;
52354;SDS011;38286;51.156;17.038;2023-10-09T15:51:39;2.17;;;0.90;;
52354;SDS011;38286;51.156;17.038;2023-10-09T15:54:05;2.40;;;0.80;;
52354;SDS011;38286;51.156;17.038;2023-10-09T15:56:31;3.00;;;0.60;;
52354;SDS011;38286;51.156;17.038;2023-10-09T15:59:00;6.03;;;3.95;;
52354;SDS011;38286;51.156;17.038;2023-10-09T16:01:25;9.07;;;4.38;;
52354;SDS011;38286;51.156;17.038;2023-10-09T16:03:52;5.43;;;2.78;;
52354;SDS011;38286;51.156;17.038;2023-10-09T16:06:18;4.43;;;2.55;;
52354;SDS011;38286;51.156;17.038;2023-10-09T16:08:48;3.35;;;1.83;;
52354;SDS011;38286;51.156;17.038;2023-10-09T16:11:19;4.07;;;1.50;;
52354;SDS011;38286;51.156;17.038;2023-10-09T16:13:49;1.98;;;1.30;;
52354;SDS011;38286;51.156;17.038;2023-10-09T16:16:23;2.22;;;1.58;;
52354;SDS011;38286;51.156;17.038;2023-10-09T16:18:53;2.50;;;1.13;;
52354;SDS011;38286;51.156;17.038;2023-10-09T16:21:21;3.67;;;1.20;;
52354;SDS011;38286;51.156;17.038;2023-10-09T16:23:50;3.22;;;1.08;;
52354;SDS011;38286;51.156;17.038;2023-10-09T16:26:16;2.40;;;1.10;;
52354;SDS011;38286;51.156;17.038;2023-10-09T16:28:43;3.33;;;1.20;;
52354;SDS011;38286;51.156;17.038;2023-10-09T16:31:10;1.67;;;1.02;;
52354;SDS011;38286;51.156;17.038;2023-10-09T16:33:41;3.00;;;1.20;;
52354;SDS011;38286;51.156;17.038;2023-10-09T16:36:07;2.20;;;1.33;;
52354;SDS011;38286;51.156;17.038;2023-10-09T16:38:33;1.77;;;1.25;;
52354;SDS011;38286;51.156;17.038;2023-10-09T16:41:04;2.10;;;1.40;;
52354;SDS011;38286;51.156;17.038;2023-10-09T16:43:34;2.75;;;1.00;;
52354;SDS011;38286;51.156;17.038;2023-10-09T16:46:03;2.67;;;1.38;;
52354;SDS011;38286;51.156;17.038;2023-10-09T16:48:39;4.35;;;1.13;;
52354;SDS011;38286;51.156;17.038;2023-10-09T16:51:08;3.80;;;1.10;;
52354;SDS011;38286;51.156;17.038;2023-10-09T16:53:35;3.42;;;1.20;;
52354;SDS011;38286;51.156;17.038;2023-10-09T16:56:02;3.92;;;1.20;;
52354;SDS011;38286;51.156;17.038;2023-10-09T16:58:38;4.03;;;1.10;;
52354;SDS011;38286;51.156;17.038;2023-10-09T17:01:05;2.22;;;1.00;;
52354;SDS011;38286;51.156;17.038;2023-10-09T17:03:39;2.57;;;1.10;;
52354;SDS011;38286;51.156;17.038;2023-10-09T17:06:11;2.33;;;1.08;;
52354;SDS011;38286;51.156;17.038;2023-10-09T17:08:37;3.22;;;1.20;;
52354;SDS011;38286;51.156;17.038;2023-10-09T17:11:08;3.35;;;1.10;;
52354;SDS011;38286;51.156;17.038;2023-10-09T17:13:38;5.10;;;1.20;;
52354;SDS011;38286;51.156;17.038;2023-10-09T17:16:16;2.70;;;1.00;;
52354;SDS011;38286;51.156;17.038;2023-10-09T17:18:47;2.92;;;1.05;;
52354;SDS011;38286;51.156;17.038;2023-10-09T17:21:13;1.13;;;0.80;;
52354;SDS011;38286;51.156;17.038;2023-10-09T17:23:42;1.40;;;0.98;;
52354;SDS011;38286;51.156;17.038;2023-10-09T17:26:11;1.83;;;0.95;;
52354;SDS011;38286;51.156;17.038;2023-10-09T17:28:37;1.17;;;0.90;;
52354;SDS011;38286;51.156;17.038;2023-10-09T17:31:03;1.63;;;0.95;;
52354;SDS011;38286;51.156;17.038;2023-10-09T17:33:30;2.60;;;1.10;;
52354;SDS011;38286;51.156;17.038;2023-10-09T17:35:57;3.00;;;0.80;;
52354;SDS011;38286;51.156;17.038;2023-10-09T17:38:25;1.00;;;0.85;;
52354;SDS011;38286;51.156;17.038;2023-10-09T17:40:50;1.33;;;0.88;;
52354;SDS011;38286;51.156;17.038;2023-10-09T17:43:19;1.63;;;1.00;;
52354;SDS011;38286;51.156;17.038;2023-10-09T17:45:46;1.30;;;1.00;;
52354;SDS011;38286;51.156;17.038;2023-10-09T17:48:13;2.35;;;1.10;;
52354;SDS011;38286;51.156;17.038;2023-10-09T17:50:42;1.35;;;1.10;;
52354;SDS011;38286;51.156;17.038;2023-10-09T17:53:10;2.05;;;1.30;;